sensor_id;sensor_type;location;lat;lon;timestamp;pressure;altitude;pressure_sealevel;temperature;humidity
55418;BME280;41287;47.554;7.844;2022-08-19T00:01:21;97655.13;;;24.15;58.22
55418;BME280;41287;47.554;7.844;2022-08-19T00:03:47;97658.63;;;24.16;58.52
55418;BME280;41287;47.554;7.844;2022-08-19T00:06:13;97666.06;;;24.15;58.50
55418;BME280;41287;47.554;7.844;2022-08-19T00:08:39;97667.63;;;24.16;58.20
55418;BME280;41287;47.554;7.844;2022-08-19T00:11:05;97658.63;;;24.16;58.32
55418;BME280;41287;47.554;7.844;2022-08-19T00:13:30;97644.94;;;24.16;57.77
55418;BME280;41287;47.554;7.844;2022-08-19T00:15:56;97642.59;;;24.14;58.23
55418;BME280;41287;47.554;7.844;2022-08-19T00:18:21;97644.94;;;24.16;58.00
55418;BME280;41287;47.554;7.844;2022-08-19T00:20:47;97649.25;;;24.17;58.33
55418;BME280;41287;47.554;7.844;2022-08-19T00:23:12;97649.66;;;24.15;58.17
55418;BME280;41287;47.554;7.844;2022-08-19T00:25:37;97641.44;;;24.15;58.65
55418;BME280;41287;47.554;7.844;2022-08-19T00:28:03;97635.19;;;24.15;58.63
55418;BME280;41287;47.554;7.844;2022-08-19T00:30:29;97651.59;;;24.15;58.56
55418;BME280;41287;47.554;7.844;2022-08-19T00:32:55;97646.91;;;24.15;58.30
55418;BME280;41287;47.554;7.844;2022-08-19T00:35:21;97642.59;;;24.14;58.31
55418;BME280;41287;47.554;7.844;2022-08-19T00:37:48;97649.66;;;24.15;58.65
55418;BME280;41287;47.554;7.844;2022-08-19T00:40:14;97655.13;;;24.15;58.28
55418;BME280;41287;47.554;7.844;2022-08-19T00:42:40;97657.09;;;24.15;58.37
55418;BME280;41287;47.554;7.844;2022-08-19T00:45:16;97652.75;;;24.14;58.33
55418;BME280;41287;47.554;7.844;2022-08-19T00:47:42;97643.41;;;24.15;58.47
55418;BME280;41287;47.554;7.844;2022-08-19T00:50:10;97649.66;;;24.15;58.58
55418;BME280;41287;47.554;7.844;2022-08-19T00:52:40;97644.56;;;24.14;58.38
55418;BME280;41287;47.554;7.844;2022-08-19T00:55:13;97641.44;;;24.15;58.51
55418;BME280;41287;47.554;7.844;2022-08-19T00:57:41;97642.59;;;24.14;58.46
55418;BME280;41287;47.554;7.844;2022-08-19T01:00:14;97638.28;;;24.13;58.54
55418;BME280;41287;47.554;7.844;2022-08-19T01:02:42;97636.34;;;24.14;58.63
55418;BME280;41287;47.554;7.844;2022-08-19T01:05:10;97641.81;;;24.14;58.71
55418;BME280;41287;47.554;7.844;2022-08-19T01:07:38;97635.56;;;24.13;58.46
55418;BME280;41287;47.554;7.844;2022-08-19T01:10:09;97638.28;;;24.13;58.65
55418;BME280;41287;47.554;7.844;2022-08-19T01:12:35;97636.34;;;24.14;58.59
55418;BME280;41287;47.554;7.844;2022-08-19T01:15:02;97641.81;;;24.14;58.92
55418;BME280;41287;47.554;7.844;2022-08-19T01:17:27;97641.81;;;24.14;58.73
55418;BME280;41287;47.554;7.844;2022-08-19T01:19:53;97630.88;;;24.14;58.54
55418;BME280;41287;47.554;7.844;2022-08-19T01:22:27;97637.50;;;24.13;58.54
55418;BME280;41287;47.554;7.844;2022-08-19T01:24:53;97634.38;;;24.14;58.43
55418;BME280;41287;47.554;7.844;2022-08-19T01:27:18;97630.06;;;24.13;58.55
55418;BME280;41287;47.554;7.844;2022-08-19T01:29:44;97635.56;;;24.13;58.39
55418;BME280;41287;47.554;7.844;2022-08-19T01:32:12;97631.25;;;24.12;58.57
55418;BME280;41287;47.554;7.844;2022-08-19T01:34:38;97633.59;;;24.14;58.46
55418;BME280;41287;47.554;7.844;2022-08-19T01:37:11;97637.50;;;24.13;58.44
55418;BME280;41287;47.554;7.844;2022-08-19T01:39:38;97642.97;;;24.13;58.34
55418;BME280;41287;47.554;7.844;2022-08-19T01:42:04;97643.75;;;24.13;58.40
55418;BME280;41287;47.554;7.844;2022-08-19T01:44:31;97649.25;;;24.13;58.32
55418;BME280;41287;47.554;7.844;2022-08-19T01:46:57;97649.25;;;24.13;58.30
55418;BME280;41287;47.554;7.844;2022-08-19T01:49:24;97653.94;;;24.13;58.21
55418;BME280;41287;47.554;7.844;2022-08-19T01:51:50;97658.63;;;24.12;58.16
55418;BME280;41287;47.554;7.844;2022-08-19T01:54:18;97657.44;;;24.13;58.55
55418;BME280;41287;47.554;7.844;2022-08-19T01:56:43;97649.25;;;24.13;58.48
55418;BME280;41287;47.554;7.844;2022-08-19T01:59:12;97648.44;;;24.13;58.39
55418;BME280;41287;47.554;7.844;2022-08-19T02:01:40;97645.72;;;24.13;58.20
55418;BME280;41287;47.554;7.844;2022-08-19T02:04:06;97642.19;;;24.12;58.30
55418;BME280;41287;47.554;7.844;2022-08-19T02:06:32;97642.97;;;24.13;58.14
55418;BME280;41287;47.554;7.844;2022-08-19T02:08:58;97649.25;;;24.13;58.33
55418;BME280;41287;47.554;7.844;2022-08-19T02:11:29;97642.97;;;24.13;58.57
55418;BME280;41287;47.554;7.844;2022-08-19T02:13:57;97641.41;;;24.12;58.21
55418;BME280;41287;47.554;7.844;2022-08-19T02:16:23;97642.19;;;24.12;58.12
55418;BME280;41287;47.554;7.844;2022-08-19T02:18:49;97641.41;;;24.12;58.45
55418;BME280;41287;47.554;7.844;2022-08-19T02:21:19;97653.13;;;24.12;58.39
55418;BME280;41287;47.554;7.844;2022-08-19T02:23:45;97647.66;;;24.12;58.40
55418;BME280;41287;47.554;7.844;2022-08-19T02:26:11;97635.94;;;24.12;58.52
55418;BME280;41287;47.554;7.844;2022-08-19T02:28:37;97638.66;;;24.12;58.48
55418;BME280;41287;47.554;7.844;2022-08-19T02:31:03;97635.94;;;24.12;58.23
55418;BME280;41287;47.554;7.844;2022-08-19T02:33:34;97635.94;;;24.12;58.12
55418;BME280;41287;47.554;7.844;2022-08-19T02:35:59;97644.94;;;24.12;57.90
55418;BME280;41287;47.554;7.844;2022-08-19T02:38:24;97635.13;;;24.11;58.06
55418;BME280;41287;47.554;7.844;2022-08-19T02:41:20;97633.56;;;24.10;57.92
55418;BME280;41287;47.554;7.844;2022-08-19T02:43:46;97646.09;;;24.11;57.98
55418;BME280;41287;47.554;7.844;2022-08-19T02:46:15;97638.66;;;24.12;58.17
55418;BME280;41287;47.554;7.844;2022-08-19T02:48:42;97646.09;;;24.11;58.31
55418;BME280;41287;47.554;7.844;2022-08-19T02:51:08;97650.41;;;24.12;58.06
55418;BME280;41287;47.554;7.844;2022-08-19T02:53:34;97651.56;;;24.11;57.98
55418;BME280;41287;47.554;7.844;2022-08-19T02:55:59;97648.81;;;24.11;57.84
55418;BME280;41287;47.554;7.844;2022-08-19T02:58:24;97652.34;;;24.12;57.97
55418;BME280;41287;47.554;7.844;2022-08-19T03:00:54;97649.63;;;24.12;57.85
55418;BME280;41287;47.554;7.844;2022-08-19T03:03:20;97649.63;;;24.12;58.06
55418;BME280;41287;47.554;7.844;2022-08-19T03:05:46;97646.88;;;24.12;58.21
55418;BME280;41287;47.554;7.844;2022-08-19T03:08:13;97648.81;;;24.11;58.04
55418;BME280;41287;47.554;7.844;2022-08-19T03:10:46;97646.88;;;24.12;58.17
55418;BME280;41287;47.554;7.844;2022-08-19T03:13:14;97652.72;;;24.10;57.98
55418;BME280;41287;47.554;7.844;2022-08-19T03:15:42;97652.72;;;24.10;57.84
55418;BME280;41287;47.554;7.844;2022-08-19T03:18:07;97659.78;;;24.11;57.80
55418;BME280;41287;47.554;7.844;2022-08-19T03:20:33;97661.72;;;24.11;57.78
55418;BME280;41287;47.554;7.844;2022-08-19T03:22:59;97660.16;;;24.10;57.73
55418;BME280;41287;47.554;7.844;2022-08-19T03:25:24;97664.47;;;24.11;58.12
55418;BME280;41287;47.554;7.844;2022-08-19T03:27:49;97670.72;;;24.11;57.72
55418;BME280;41287;47.554;7.844;2022-08-19T03:30:15;97660.94;;;24.10;57.87
55418;BME280;41287;47.554;7.844;2022-08-19T03:32:40;97655.09;;;24.12;57.70
55418;BME280;41287;47.554;7.844;2022-08-19T03:35:06;97666.41;;;24.10;57.97
55418;BME280;41287;47.554;7.844;2022-08-19T03:37:32;97665.25;;;24.11;58.24
55418;BME280;41287;47.554;7.844;2022-08-19T03:39:57;97659.00;;;24.11;58.06
55418;BME280;41287;47.554;7.844;2022-08-19T03:42:23;97657.81;;;24.12;58.13
55418;BME280;41287;47.554;7.844;2022-08-19T03:44:48;97666.81;;;24.12;57.49
55418;BME280;41287;47.554;7.844;2022-08-19T03:47:14;97662.13;;;24.13;57.57
55418;BME280;41287;47.554;7.844;2022-08-19T03:49:41;97661.75;;;24.14;57.71
55418;BME280;41287;47.554;7.844;2022-08-19T03:52:07;97659.03;;;24.14;58.04
55418;BME280;41287;47.554;7.844;2022-08-19T03:54:33;97663.34;;;24.19;57.51
55418;BME280;41287;47.554;7.844;2022-08-19T03:56:59;97650.91;;;24.21;57.63
55418;BME280;41287;47.554;7.844;2022-08-19T03:59:31;97657.53;;;24.24;58.19
55418;BME280;41287;47.554;7.844;2022-08-19T04:01:59;97660.31;;;24.27;58.83
55418;BME280;41287;47.554;7.844;2022-08-19T04:04:26;97669.72;;;24.30;59.56
55418;BME280;41287;47.554;7.844;2022-08-19T04:06:52;97677.19;;;24.33;60.50
55418;BME280;41287;47.554;7.844;2022-08-19T04:09:19;97672.47;;;24.33;61.30
55418;BME280;41287;47.554;7.844;2022-08-19T04:11:50;97681.91;;;24.36;62.74
55418;BME280;41287;47.554;7.844;2022-08-19T04:14:20;97684.66;;;24.39;63.01
55418;BME280;41287;47.554;7.844;2022-08-19T04:16:47;97687.81;;;24.42;64.04
55418;BME280;41287;47.554;7.844;2022-08-19T04:19:14;97674.50;;;24.44;64.48
55418;BME280;41287;47.554;7.844;2022-08-19T04:21:43;97668.25;;;24.47;65.27
55418;BME280;41287;47.554;7.844;2022-08-19T04:24:09;97666.31;;;24.51;65.07
55418;BME280;41287;47.554;7.844;2022-08-19T04:26:35;97669.84;;;24.51;65.28
55418;BME280;41287;47.554;7.844;2022-08-19T04:29:05;97672.22;;;24.53;65.74
55418;BME280;41287;47.554;7.844;2022-08-19T04:31:32;97677.31;;;24.54;65.80
55418;BME280;41287;47.554;7.844;2022-08-19T04:34:02;97693.38;;;24.56;66.45
55418;BME280;41287;47.554;7.844;2022-08-19T04:36:31;97690.22;;;24.57;66.80
55418;BME280;41287;47.554;7.844;2022-08-19T04:39:00;97696.50;;;24.58;67.23
55418;BME280;41287;47.554;7.844;2022-08-19T04:41:26;97693.00;;;24.61;67.58
55418;BME280;41287;47.554;7.844;2022-08-19T04:44:11;97698.09;;;24.62;68.19
55418;BME280;41287;47.554;7.844;2022-08-19T04:46:37;97702.00;;;24.65;68.41
55418;BME280;41287;47.554;7.844;2022-08-19T04:49:03;97702.44;;;24.67;68.86
55418;BME280;41287;47.554;7.844;2022-08-19T04:51:30;97700.09;;;24.69;68.77
55418;BME280;41287;47.554;7.844;2022-08-19T04:53:56;97703.22;;;24.67;65.58
55418;BME280;41287;47.554;7.844;2022-08-19T04:56:21;97703.59;;;24.66;63.59
55418;BME280;41287;47.554;7.844;2022-08-19T04:58:48;97707.13;;;24.63;62.60
55418;BME280;41287;47.554;7.844;2022-08-19T05:01:21;97716.88;;;24.60;61.38
55418;BME280;41287;47.554;7.844;2022-08-19T05:03:47;97713.72;;;24.58;61.32
55418;BME280;41287;47.554;7.844;2022-08-19T05:06:15;97708.63;;;24.57;61.15
55418;BME280;41287;47.554;7.844;2022-08-19T05:08:41;97708.22;;;24.55;61.09
55418;BME280;41287;47.554;7.844;2022-08-19T05:11:16;97718.41;;;24.54;60.65
55418;BME280;41287;47.554;7.844;2022-08-19T05:13:46;97710.94;;;24.51;60.72
55418;BME280;41287;47.554;7.844;2022-08-19T05:16:13;97716.41;;;24.51;60.56
55418;BME280;41287;47.554;7.844;2022-08-19T05:18:40;97717.56;;;24.50;60.52
55418;BME280;41287;47.554;7.844;2022-08-19T05:21:25;97724.25;;;24.49;60.22
55418;BME280;41287;47.554;7.844;2022-08-19T05:24:09;97724.63;;;24.48;60.50
55418;BME280;41287;47.554;7.844;2022-08-19T05:26:40;97726.94;;;24.46;60.11
55418;BME280;41287;47.554;7.844;2022-08-19T05:29:06;97733.59;;;24.45;60.09
55418;BME280;41287;47.554;7.844;2022-08-19T05:31:35;97733.59;;;24.45;60.09
55418;BME280;41287;47.554;7.844;2022-08-19T05:34:02;97741.78;;;24.45;60.09
55418;BME280;41287;47.554;7.844;2022-08-19T05:36:34;97740.63;;;24.42;59.95
55418;BME280;41287;47.554;7.844;2022-08-19T05:39:00;97737.09;;;24.42;59.97
55418;BME280;41287;47.554;7.844;2022-08-19T05:41:26;97737.09;;;24.42;59.87
55418;BME280;41287;47.554;7.844;2022-08-19T05:43:58;97725.72;;;24.39;59.91
55418;BME280;41287;47.554;7.844;2022-08-19T05:46:25;97727.69;;;24.39;60.08
55418;BME280;41287;47.554;7.844;2022-08-19T05:48:51;97736.69;;;24.39;59.84
55418;BME280;41287;47.554;7.844;2022-08-19T05:51:16;97738.63;;;24.39;59.74
55418;BME280;41287;47.554;7.844;2022-08-19T05:53:42;97735.47;;;24.37;59.66
55418;BME280;41287;47.554;7.844;2022-08-19T05:56:12;97740.16;;;24.36;59.92
55418;BME280;41287;47.554;7.844;2022-08-19T05:58:39;97742.91;;;24.36;59.77
55418;BME280;41287;47.554;7.844;2022-08-19T06:01:10;97744.09;;;24.35;59.85
55418;BME280;41287;47.554;7.844;2022-08-19T06:03:35;97747.63;;;24.36;59.52
55418;BME280;41287;47.554;7.844;2022-08-19T06:06:03;97746.84;;;24.35;59.59
55418;BME280;41287;47.554;7.844;2022-08-19T06:08:29;97748.38;;;24.36;59.63
55418;BME280;41287;47.554;7.844;2022-08-19T06:10:54;97746.03;;;24.35;59.52
55418;BME280;41287;47.554;7.844;2022-08-19T06:13:21;97753.47;;;24.34;59.54
55418;BME280;41287;47.554;7.844;2022-08-19T06:15:50;97747.22;;;24.34;59.74
55418;BME280;41287;47.554;7.844;2022-08-19T06:18:16;97749.94;;;24.34;59.64
55418;BME280;41287;47.554;7.844;2022-08-19T06:20:42;97748.00;;;24.34;59.73
55418;BME280;41287;47.554;7.844;2022-08-19T06:23:08;97745.25;;;24.34;59.37
55418;BME280;41287;47.554;7.844;2022-08-19T06:25:34;97740.16;;;24.33;59.39
55418;BME280;41287;47.554;7.844;2022-08-19T06:27:59;97742.91;;;24.33;59.31
55418;BME280;41287;47.554;7.844;2022-08-19T06:30:25;97745.63;;;24.33;59.39
55418;BME280;41287;47.554;7.844;2022-08-19T06:32:50;97747.59;;;24.32;59.53
55418;BME280;41287;47.554;7.844;2022-08-19T06:35:16;97752.28;;;24.32;59.34
55418;BME280;41287;47.554;7.844;2022-08-19T06:37:43;97749.53;;;24.32;59.41
55418;BME280;41287;47.554;7.844;2022-08-19T06:40:09;97752.28;;;24.32;59.32
55418;BME280;41287;47.554;7.844;2022-08-19T06:42:36;97747.59;;;24.32;59.53
55418;BME280;41287;47.554;7.844;2022-08-19T06:45:04;97751.09;;;24.33;59.41
55418;BME280;41287;47.554;7.844;2022-08-19T06:47:30;97747.94;;;24.31;59.37
55418;BME280;41287;47.554;7.844;2022-08-19T06:49:58;97747.16;;;24.30;59.28
55418;BME280;41287;47.554;7.844;2022-08-19T06:52:34;97742.47;;;24.31;59.54
55418;BME280;41287;47.554;7.844;2022-08-19T06:55:01;97747.16;;;24.30;59.20
55418;BME280;41287;47.554;7.844;2022-08-19T06:57:30;97749.13;;;24.30;59.20
55418;BME280;41287;47.554;7.844;2022-08-19T06:59:58;97749.91;;;24.30;59.20
55418;BME280;41287;47.554;7.844;2022-08-19T07:02:25;97752.66;;;24.30;59.19
55418;BME280;41287;47.554;7.844;2022-08-19T07:04:52;97757.34;;;24.30;59.11
55418;BME280;41287;47.554;7.844;2022-08-19T07:07:20;97749.53;;;24.28;59.36
55418;BME280;41287;47.554;7.844;2022-08-19T07:09:49;97772.22;;;24.29;59.13
55418;BME280;41287;47.554;7.844;2022-08-19T07:12:15;97771.41;;;24.28;59.17
55418;BME280;41287;47.554;7.844;2022-08-19T07:14:41;97777.69;;;24.29;59.07
55418;BME280;41287;47.554;7.844;2022-08-19T07:17:11;97782.38;;;24.28;59.35
55418;BME280;41287;47.554;7.844;2022-08-19T07:19:38;97776.91;;;24.28;59.29
55418;BME280;41287;47.554;7.844;2022-08-19T07:22:06;97778.84;;;24.28;59.22
55418;BME280;41287;47.554;7.844;2022-08-19T07:24:33;97776.09;;;24.28;59.16
55418;BME280;41287;47.554;7.844;2022-08-19T07:27:01;97780.78;;;24.27;59.04
55418;BME280;41287;47.554;7.844;2022-08-19T07:29:29;97778.84;;;24.28;59.02
55418;BME280;41287;47.554;7.844;2022-08-19T07:31:56;97780.78;;;24.27;59.06
55418;BME280;41287;47.554;7.844;2022-08-19T07:34:24;97785.47;;;24.27;58.90
55418;BME280;41287;47.554;7.844;2022-08-19T07:36:51;97788.22;;;24.27;59.09
55418;BME280;41287;47.554;7.844;2022-08-19T07:39:21;97787.44;;;24.26;59.12
55418;BME280;41287;47.554;7.844;2022-08-19T07:41:47;97787.44;;;24.26;59.08
55418;BME280;41287;47.554;7.844;2022-08-19T07:44:14;97793.69;;;24.27;58.91
55418;BME280;41287;47.554;7.844;2022-08-19T07:46:45;97788.59;;;24.25;59.27
55418;BME280;41287;47.554;7.844;2022-08-19T07:49:14;97788.59;;;24.25;59.02
55418;BME280;41287;47.554;7.844;2022-08-19T07:51:49;97789.38;;;24.26;59.04
55418;BME280;41287;47.554;7.844;2022-08-19T07:54:17;97792.91;;;24.26;59.05
55418;BME280;41287;47.554;7.844;2022-08-19T07:56:44;97805.81;;;24.26;59.05
55418;BME280;41287;47.554;7.844;2022-08-19T07:59:09;97796.81;;;24.25;58.89
55418;BME280;41287;47.554;7.844;2022-08-19T08:01:35;97797.97;;;24.24;59.19
55418;BME280;41287;47.554;7.844;2022-08-19T08:04:01;97787.00;;;24.24;59.10
55418;BME280;41287;47.554;7.844;2022-08-19T08:06:45;97793.66;;;24.23;58.93
55418;BME280;41287;47.554;7.844;2022-08-19T08:09:33;97799.91;;;24.24;58.85
55418;BME280;41287;47.554;7.844;2022-08-19T08:12:12;97799.13;;;24.23;59.01
55418;BME280;41287;47.554;7.844;2022-08-19T08:14:43;97807.34;;;24.23;58.84
55418;BME280;41287;47.554;7.844;2022-08-19T08:17:09;97810.88;;;24.24;58.85
55418;BME280;41287;47.554;7.844;2022-08-19T08:19:36;97802.66;;;24.24;59.18
55418;BME280;41287;47.554;7.844;2022-08-19T08:22:03;97803.81;;;24.23;58.87
55418;BME280;41287;47.554;7.844;2022-08-19T08:24:30;97800.31;;;24.22;59.12
55418;BME280;41287;47.554;7.844;2022-08-19T08:26:59;97800.31;;;24.22;59.07
55418;BME280;41287;47.554;7.844;2022-08-19T08:29:26;97803.81;;;24.23;59.39
55418;BME280;41287;47.554;7.844;2022-08-19T08:31:52;97805.78;;;24.22;58.99
55418;BME280;41287;47.554;7.844;2022-08-19T08:34:19;97816.75;;;24.22;58.98
55418;BME280;41287;47.554;7.844;2022-08-19T08:36:45;97819.47;;;24.22;58.92
55418;BME280;41287;47.554;7.844;2022-08-19T08:39:14;97826.13;;;24.21;58.72
55418;BME280;41287;47.554;7.844;2022-08-19T08:42:13;97824.97;;;24.22;58.94
55418;BME280;41287;47.554;7.844;2022-08-19T08:44:49;97828.09;;;24.24;58.75
55418;BME280;41287;47.554;7.844;2022-08-19T08:47:21;97832.41;;;24.25;58.92
55418;BME280;41287;47.554;7.844;2022-08-19T08:52:36;97838.66;;;24.26;58.88
55418;BME280;41287;47.554;7.844;2022-08-19T08:55:12;97834.78;;;24.27;59.18
55418;BME280;41287;47.554;7.844;2022-08-19T09:00:19;97852.00;;;24.27;58.95
55418;BME280;41287;47.554;7.844;2022-08-19T09:02:46;97854.72;;;24.27;59.05
55418;BME280;41287;47.554;7.844;2022-08-19T09:05:12;97866.47;;;24.28;59.10
55418;BME280;41287;47.554;7.844;2022-08-19T09:10:36;97865.69;;;24.27;59.05
55418;BME280;41287;47.554;7.844;2022-08-19T09:15:45;97862.56;;;24.29;58.93
55418;BME280;41287;47.554;7.844;2022-08-19T09:18:13;97864.53;;;24.28;58.96
55418;BME280;41287;47.554;7.844;2022-08-19T09:20:38;97857.09;;;24.29;58.87
55418;BME280;41287;47.554;7.844;2022-08-19T09:23:04;97856.31;;;24.28;59.17
55418;BME280;41287;47.554;7.844;2022-08-19T09:25:29;97860.59;;;24.29;59.06
55418;BME280;41287;47.554;7.844;2022-08-19T09:27:57;97869.59;;;24.30;58.94
55418;BME280;41287;47.554;7.844;2022-08-19T09:30:27;97870.78;;;24.29;59.22
55418;BME280;41287;47.554;7.844;2022-08-19T09:32:54;97879.75;;;24.29;59.04
55418;BME280;41287;47.554;7.844;2022-08-19T09:35:25;97886.44;;;24.28;58.83
55418;BME280;41287;47.554;7.844;2022-08-19T09:37:52;97887.22;;;24.29;58.84
55418;BME280;41287;47.554;7.844;2022-08-19T09:40:19;97890.72;;;24.29;58.81
55418;BME280;41287;47.554;7.844;2022-08-19T09:42:45;97893.44;;;24.29;58.90
55418;BME280;41287;47.554;7.844;2022-08-19T09:45:15;97888.75;;;24.30;58.90
55418;BME280;41287;47.554;7.844;2022-08-19T09:47:41;97888.38;;;24.28;58.90
55418;BME280;41287;47.554;7.844;2022-08-19T09:50:09;97886.44;;;24.28;58.94
55418;BME280;41287;47.554;7.844;2022-08-19T09:52:34;97897.38;;;24.28;58.90
55418;BME280;41287;47.554;7.844;2022-08-19T09:55:04;97887.22;;;24.29;58.83
55418;BME280;41287;47.554;7.844;2022-08-19T09:57:30;97884.47;;;24.29;58.84
55418;BME280;41287;47.554;7.844;2022-08-19T09:59:56;97887.97;;;24.29;58.89
55418;BME280;41287;47.554;7.844;2022-08-19T10:02:21;97877.03;;;24.29;58.95
55418;BME280;41287;47.554;7.844;2022-08-19T10:04:46;97884.47;;;24.29;58.96
55418;BME280;41287;47.554;7.844;2022-08-19T10:07:30;97883.28;;;24.30;58.71
55418;BME280;41287;47.554;7.844;2022-08-19T10:09:56;97896.19;;;24.29;58.60
55418;BME280;41287;47.554;7.844;2022-08-19T10:12:21;97895.44;;;24.29;58.90
55418;BME280;41287;47.554;7.844;2022-08-19T10:14:47;97901.66;;;24.29;58.80
55418;BME280;41287;47.554;7.844;2022-08-19T10:17:13;97897.38;;;24.28;58.90
55418;BME280;41287;47.554;7.844;2022-08-19T10:19:39;97903.66;;;24.29;58.96
55418;BME280;41287;47.554;7.844;2022-08-19T10:22:06;97898.16;;;24.29;58.93
55418;BME280;41287;47.554;7.844;2022-08-19T10:24:33;97900.13;;;24.28;58.59
55418;BME280;41287;47.554;7.844;2022-08-19T10:26:59;97903.66;;;24.29;58.65
55418;BME280;41287;47.554;7.844;2022-08-19T10:29:29;97900.13;;;24.28;58.96
55418;BME280;41287;47.554;7.844;2022-08-19T10:31:55;97898.94;;;24.29;58.61
55418;BME280;41287;47.554;7.844;2022-08-19T10:34:21;97905.59;;;24.28;58.84
55418;BME280;41287;47.554;7.844;2022-08-19T10:36:48;97907.53;;;24.28;58.90
55418;BME280;41287;47.554;7.844;2022-08-19T10:39:13;97900.91;;;24.29;58.52
55418;BME280;41287;47.554;7.844;2022-08-19T10:41:39;97898.16;;;24.29;58.66
55418;BME280;41287;47.554;7.844;2022-08-19T10:44:10;97900.13;;;24.28;58.91
55418;BME280;41287;47.554;7.844;2022-08-19T10:46:40;97898.16;;;24.29;58.81
55418;BME280;41287;47.554;7.844;2022-08-19T10:49:08;97900.91;;;24.29;58.61
55418;BME280;41287;47.554;7.844;2022-08-19T10:51:34;97893.84;;;24.28;58.70
55418;BME280;41287;47.554;7.844;2022-08-19T10:54:19;97909.13;;;24.29;58.93
55418;BME280;41287;47.554;7.844;2022-08-19T10:56:44;97894.63;;;24.28;58.62
55418;BME280;41287;47.554;7.844;2022-08-19T10:59:26;97905.59;;;24.28;58.91
55418;BME280;41287;47.554;7.844;2022-08-19T11:01:59;97907.53;;;24.28;58.84
55418;BME280;41287;47.554;7.844;2022-08-19T11:04:25;97900.13;;;24.28;58.74
55418;BME280;41287;47.554;7.844;2022-08-19T11:06:51;97911.06;;;24.28;58.73
55418;BME280;41287;47.554;7.844;2022-08-19T11:09:22;97913.03;;;24.28;58.76
55418;BME280;41287;47.554;7.844;2022-08-19T11:11:52;97907.53;;;24.28;58.77
55418;BME280;41287;47.554;7.844;2022-08-19T11:14:19;97901.28;;;24.27;59.03
55418;BME280;41287;47.554;7.844;2022-08-19T11:16:47;97907.53;;;24.28;58.67
55418;BME280;41287;47.554;7.844;2022-08-19T11:19:13;97904.00;;;24.27;58.95
55418;BME280;41287;47.554;7.844;2022-08-19T11:21:43;97908.34;;;24.28;58.69
55418;BME280;41287;47.554;7.844;2022-08-19T11:24:15;97904.81;;;24.28;58.64
55418;BME280;41287;47.554;7.844;2022-08-19T11:26:42;97907.53;;;24.28;58.60
55418;BME280;41287;47.554;7.844;2022-08-19T11:29:10;97908.34;;;24.28;58.72
55418;BME280;41287;47.554;7.844;2022-08-19T11:31:37;97902.06;;;24.28;58.74
55418;BME280;41287;47.554;7.844;2022-08-19T11:34:06;97907.53;;;24.28;58.80
55418;BME280;41287;47.554;7.844;2022-08-19T11:36:33;97914.97;;;24.27;58.60
55418;BME280;41287;47.554;7.844;2022-08-19T11:39:00;97908.34;;;24.28;58.90
55418;BME280;41287;47.554;7.844;2022-08-19T11:41:26;97918.50;;;24.28;58.74
55418;BME280;41287;47.554;7.844;2022-08-19T11:43:52;97917.72;;;24.27;58.70
55418;BME280;41287;47.554;7.844;2022-08-19T11:46:21;97922.03;;;24.28;58.82
55418;BME280;41287;47.554;7.844;2022-08-19T11:48:48;97923.19;;;24.27;58.53
55418;BME280;41287;47.554;7.844;2022-08-19T11:51:19;97925.91;;;24.27;58.58
55418;BME280;41287;47.554;7.844;2022-08-19T11:53:46;97919.66;;;24.27;58.71
55418;BME280;41287;47.554;7.844;2022-08-19T11:56:12;97923.19;;;24.27;58.90
55418;BME280;41287;47.554;7.844;2022-08-19T11:58:39;97921.22;;;24.28;58.67
55418;BME280;41287;47.554;7.844;2022-08-19T12:01:11;97923.19;;;24.27;58.87
55418;BME280;41287;47.554;7.844;2022-08-19T12:03:38;97922.03;;;24.28;58.91
55418;BME280;41287;47.554;7.844;2022-08-19T12:06:06;97920.44;;;24.27;58.96
55418;BME280;41287;47.554;7.844;2022-08-19T12:08:32;97918.50;;;24.28;58.69
55418;BME280;41287;47.554;7.844;2022-08-19T12:10:57;97916.91;;;24.27;58.62
55418;BME280;41287;47.554;7.844;2022-08-19T12:13:23;97916.91;;;24.27;58.82
55418;BME280;41287;47.554;7.844;2022-08-19T12:15:49;97916.91;;;24.27;58.63
55418;BME280;41287;47.554;7.844;2022-08-19T12:18:15;97917.72;;;24.27;58.70
55418;BME280;41287;47.554;7.844;2022-08-19T12:20:41;97917.72;;;24.27;58.64
55418;BME280;41287;47.554;7.844;2022-08-19T12:23:08;97921.22;;;24.28;58.78
55418;BME280;41287;47.554;7.844;2022-08-19T12:25:35;97914.97;;;24.27;58.90
55418;BME280;41287;47.554;7.844;2022-08-19T12:28:01;97919.66;;;24.27;58.62
55418;BME280;41287;47.554;7.844;2022-08-19T12:30:27;97920.81;;;24.26;58.74
55418;BME280;41287;47.554;7.844;2022-08-19T12:32:52;97921.59;;;24.26;58.76
55418;BME280;41287;47.554;7.844;2022-08-19T12:35:18;97923.19;;;24.27;58.58
55418;BME280;41287;47.554;7.844;2022-08-19T12:37:46;97928.66;;;24.27;58.79
55418;BME280;41287;47.554;7.844;2022-08-19T12:40:13;97931.41;;;24.27;58.87
55418;BME280;41287;47.554;7.844;2022-08-19T12:42:41;97929.44;;;24.28;58.69
55418;BME280;41287;47.554;7.844;2022-08-19T12:45:08;97921.59;;;24.26;58.64
55418;BME280;41287;47.554;7.844;2022-08-19T12:47:34;97927.88;;;24.27;58.63
55418;BME280;41287;47.554;7.844;2022-08-19T12:50:00;97935.28;;;24.26;58.72
55418;BME280;41287;47.554;7.844;2022-08-19T12:52:26;97932.56;;;24.26;58.75
55418;BME280;41287;47.554;7.844;2022-08-19T12:54:54;97927.88;;;24.27;58.82
55418;BME280;41287;47.554;7.844;2022-08-19T12:57:24;97916.91;;;24.27;58.65
55418;BME280;41287;47.554;7.844;2022-08-19T12:59:53;97926.28;;;24.26;58.69
55418;BME280;41287;47.554;7.844;2022-08-19T13:02:19;97926.28;;;24.26;58.75
55418;BME280;41287;47.554;7.844;2022-08-19T13:04:45;97927.06;;;24.26;58.59
55418;BME280;41287;47.554;7.844;2022-08-19T13:07:11;97929.81;;;24.26;58.75
55418;BME280;41287;47.554;7.844;2022-08-19T13:09:36;97929.81;;;24.26;58.72
55418;BME280;41287;47.554;7.844;2022-08-19T13:12:03;97930.59;;;24.27;58.70
55418;BME280;41287;47.554;7.844;2022-08-19T13:14:32;97930.59;;;24.27;58.75